Time;durP1;ratioP1;P1;durP2;ratioP2;P2;SDS_P1;SDS_P2;PMS_P1;PMS_P2;Temp;Humidity;BMP_temperature;BMP_pressure;BME280_temperature;BME280_humidity;BME280_pressure;Samples;Min_cycle;Max_cycle;Signal;HPM_P1;HPM_P2
2023/11/13 00:02:27;;;;;;;1.20;1.20;;;9.20;41.60;;;;;;10270917;28;20231;-74
2023/11/13 00:07:30;;;;;;;1.40;1.30;;;9.20;41.80;;;;;;10276591;28;20234;-74
2023/11/13 00:12:34;;;;;;;1.33;1.33;;;9.20;41.30;;;;;;10273143;28;20612;-74
2023/11/13 00:17:39;;;;;;;1.50;1.40;;;9.30;41.30;;;;;;10274180;28;20228;-74
2023/11/13 00:22:42;;;;;;;2.13;1.30;;;9.30;41.30;;;;;;10270888;28;20226;-74
2023/11/13 00:27:45;;;;;;;1.20;1.20;;;9.30;41.10;;;;;;10271399;28;20318;-74
2023/11/13 00:32:50;;;;;;;1.40;1.30;;;9.30;41.30;;;;;;10269737;28;20219;-74
2023/11/13 00:37:57;;;;;;;1.43;1.40;;;9.30;41.60;;;;;;10270316;28;20236;-74
2023/11/13 00:43:00;;;;;;;1.67;1.57;;;9.30;41.40;;;;;;10273152;28;20306;-74
2023/11/13 00:48:05;;;;;;;1.80;1.70;;;9.30;41.40;;;;;;10273334;28;20228;-74
2023/11/13 00:53:10;;;;;;;1.63;1.57;;;9.20;41.70;;;;;;10276651;28;20232;-74
2023/11/13 00:58:13;;;;;;;2.33;2.20;;;9.20;41.50;;;;;;10270543;28;20323;-74
2023/11/13 01:03:18;;;;;;;1.73;1.63;;;9.10;41.50;;;;;;10266892;28;20239;-73
2023/11/13 01:08:21;;;;;;;1.80;1.70;;;9.10;41.90;;;;;;10273137;28;20610;-74
2023/11/13 01:13:25;;;;;;;1.90;1.80;;;9.10;41.90;;;;;;10269469;28;20231;-74
2023/11/13 01:18:29;;;;;;;2.10;1.90;;;9.00;41.80;;;;;;10265046;28;20244;-74
2023/11/13 01:23:33;;;;;;;3.10;1.80;;;9.00;42.00;;;;;;10270370;28;20231;-74
2023/11/13 01:28:36;;;;;;;1.93;1.83;;;9.00;42.00;;;;;;10270802;28;20367;-74
2023/11/13 01:33:40;;;;;;;1.90;1.80;;;9.00;42.00;;;;;;10269671;28;20238;-74
2023/11/13 01:38:44;;;;;;;2.73;1.70;;;9.00;42.30;;;;;;10269351;28;20239;-75
2023/11/13 01:43:47;;;;;;;2.20;2.00;;;9.00;42.00;;;;;;10270284;28;20230;-74
2023/11/13 01:48:53;;;;;;;2.30;2.10;;;9.00;42.30;;;;;;10267223;28;20314;-74
2023/11/13 01:53:57;;;;;;;2.37;2.23;;;9.00;42.70;;;;;;10267824;28;20263;-74
2023/11/13 01:59:01;;;;;;;2.57;2.40;;;9.00;42.40;;;;;;10261946;28;20224;-74
2023/11/13 02:04:06;;;;;;;2.50;2.30;;;9.10;42.20;;;;;;10264222;28;20785;-74
2023/11/13 02:09:12;;;;;;;1.93;1.83;;;9.10;42.50;;;;;;10272148;28;20230;-74
2023/11/13 02:14:16;;;;;;;2.83;2.63;;;9.10;42.40;;;;;;10270816;28;20231;-74
2023/11/13 02:19:21;;;;;;;3.20;2.37;;;9.10;42.50;;;;;;10267291;28;20231;-74
2023/11/13 02:24:25;;;;;;;2.80;2.60;;;9.20;42.70;;;;;;10265357;28;20235;-74
2023/11/13 02:29:29;;;;;;;3.40;3.10;;;9.20;42.60;;;;;;10261941;28;20259;-74
2023/11/13 02:34:32;;;;;;;3.20;3.00;;;9.20;42.40;;;;;;10268688;28;20707;-74
2023/11/13 02:39:37;;;;;;;3.93;3.63;;;9.10;42.20;;;;;;10265361;28;20231;-74
2023/11/13 02:44:40;;;;;;;3.80;3.50;;;9.10;42.80;;;;;;10268213;28;20243;-74
2023/11/13 02:49:43;;;;;;;3.97;3.67;;;9.00;42.60;;;;;;10265666;28;20246;-74
2023/11/13 02:54:51;;;;;;;3.90;3.60;;;9.00;42.50;;;;;;10270278;28;20271;-74
2023/11/13 02:59:54;;;;;;;4.27;3.97;;;9.00;42.90;;;;;;10274070;28;20231;-74
2023/11/13 03:04:57;;;;;;;4.37;4.07;;;9.00;42.60;;;;;;10273897;28;20230;-74
2023/11/13 03:10:02;;;;;;;4.70;4.40;;;9.00;42.80;;;;;;10276739;28;20853;-74
2023/11/13 03:15:09;;;;;;;4.53;4.23;;;9.00;43.20;;;;;;10276138;28;20724;-74
2023/11/13 03:20:12;;;;;;;5.03;4.70;;;9.00;43.20;;;;;;10279154;28;20899;-74
2023/11/13 03:25:18;;;;;;;5.00;4.60;;;9.00;43.10;;;;;;10272609;28;20334;-74
2023/11/13 03:30:21;;;;;;;5.10;4.70;;;9.00;43.60;;;;;;10272442;28;20262;-74
2023/11/13 03:35:24;;;;;;;4.73;4.33;;;9.00;43.30;;;;;;10274221;28;20894;-74
2023/11/13 03:40:29;;;;;;;4.97;4.63;;;9.00;43.60;;;;;;10276147;28;20235;-74
2023/11/13 03:45:32;;;;;;;4.57;4.27;;;9.00;43.80;;;;;;10272492;28;20231;-74
2023/11/13 03:50:35;;;;;;;5.33;4.93;;;9.10;43.50;;;;;;10272616;28;20236;-74
2023/11/13 03:55:40;;;;;;;5.00;4.63;;;9.10;43.40;;;;;;10273506;28;20253;-74
2023/11/13 04:00:43;;;;;;;4.87;4.57;;;9.10;43.70;;;;;;10270794;28;20254;-74
2023/11/13 04:05:46;;;;;;;4.60;4.30;;;9.20;43.50;;;;;;10277154;28;20286;-74
2023/11/13 04:10:51;;;;;;;5.00;4.70;;;9.30;43.60;;;;;;10273818;28;20236;-74
2023/11/13 04:15:54;;;;;;;4.90;4.50;;;9.30;43.90;;;;;;10274465;28;20713;-74
2023/11/13 04:20:57;;;;;;;5.10;4.70;;;9.40;43.60;;;;;;10271559;28;20919;-74
2023/11/13 04:26:02;;;;;;;4.50;4.20;;;9.40;43.60;;;;;;10275156;28;20227;-74
2023/11/13 04:31:05;;;;;;;4.03;3.80;;;9.40;44.00;;;;;;10269654;28;20690;-74
2023/11/13 04:36:09;;;;;;;3.97;3.67;;;9.40;43.80;;;;;;10272191;28;20302;-74
2023/11/13 04:41:16;;;;;;;3.90;3.70;;;9.40;43.90;;;;;;10268958;28;20603;-74
2023/11/13 04:46:19;;;;;;;3.50;3.30;;;9.40;44.10;;;;;;10267960;28;20801;-74
2023/11/13 04:51:23;;;;;;;3.47;3.27;;;9.40;43.90;;;;;;10262928;28;20706;-74
2023/11/13 04:56:27;;;;;;;3.30;3.10;;;9.50;44.10;;;;;;10269463;28;20239;-74
2023/11/13 05:01:31;;;;;;;3.50;3.30;;;9.50;44.50;;;;;;10270792;28;20489;-74
2023/11/13 05:06:35;;;;;;;3.13;2.93;;;9.50;44.20;;;;;;10273123;28;20234;-74
2023/11/13 05:11:40;;;;;;;2.97;2.77;;;9.60;44.30;;;;;;10271028;28;20239;-74
2023/11/13 05:16:43;;;;;;;3.63;3.00;;;9.60;44.50;;;;;;10272596;28;20792;-74
2023/11/13 05:21:47;;;;;;;3.13;2.93;;;9.70;44.20;;;;;;10264213;28;20238;-74
2023/11/13 05:26:53;;;;;;;3.40;3.20;;;9.80;44.30;;;;;;10268431;28;20219;-74
2023/11/13 05:31:56;;;;;;;3.20;3.00;;;9.80;44.40;;;;;;10268755;28;20315;-74
2023/11/13 05:37:00;;;;;;;3.03;2.83;;;9.80;44.10;;;;;;10261318;28;20290;-74
2023/11/13 05:42:05;;;;;;;3.23;3.03;;;9.80;44.00;;;;;;10260581;28;20317;-76
2023/11/13 05:47:09;;;;;;;3.80;3.60;;;9.90;44.50;;;;;;10255390;28;20219;-74
2023/11/13 05:52:12;;;;;;;11.03;6.87;;;9.90;44.30;;;;;;10257241;28;20326;-72
2023/11/13 05:57:17;;;;;;;4.20;3.80;;;9.90;44.30;;;;;;10258287;28;20232;-72
2023/11/13 06:02:20;;;;;;;3.70;3.40;;;9.90;44.50;;;;;;10260019;28;20291;-72
2023/11/13 06:07:24;;;;;;;3.27;3.07;;;10.00;43.40;;;;;;10257459;28;20260;-72
2023/11/13 06:12:28;;;;;;;3.30;3.10;;;10.00;43.40;;;;;;10257448;28;20234;-72
2023/11/13 06:17:31;;;;;;;4.57;4.17;;;10.00;43.60;;;;;;10259046;28;20327;-72
2023/11/13 06:22:35;;;;;;;5.03;4.63;;;10.10;43.60;;;;;;10259509;28;20298;-72
2023/11/13 06:27:41;;;;;;;5.23;4.73;;;10.20;43.70;;;;;;10254245;28;20250;-72
2023/11/13 06:32:47;;;;;;;5.13;4.73;;;10.20;44.10;;;;;;10249670;28;20232;-72
2023/11/13 06:37:51;;;;;;;4.77;4.37;;;10.20;43.50;;;;;;10257687;28;20479;-72
2023/11/13 06:42:56;;;;;;;3.90;3.60;;;10.20;43.40;;;;;;10259608;28;20227;-72
2023/11/13 06:47:59;;;;;;;3.97;3.67;;;10.30;43.90;;;;;;10267090;28;20297;-72
2023/11/13 06:53:03;;;;;;;3.37;3.17;;;10.30;43.50;;;;;;10263282;28;20250;-72
2023/11/13 06:58:08;;;;;;;3.70;3.40;;;10.30;43.60;;;;;;10267703;28;20235;-72
2023/11/13 07:03:13;;;;;;;3.90;3.60;;;10.30;43.80;;;;;;10267427;28;20235;-72
2023/11/13 07:08:17;;;;;;;4.30;4.00;;;10.30;43.50;;;;;;10270113;28;20228;-72
2023/11/13 07:13:21;;;;;;;5.60;5.10;;;10.30;43.60;;;;;;10263478;28;20228;-73
2023/11/13 07:18:25;;;;;;;4.53;4.13;;;10.30;44.00;;;;;;10263119;28;20622;-73
2023/11/13 07:23:29;;;;;;;4.73;4.40;;;10.20;43.80;;;;;;10268687;28;20789;-73
2023/11/13 07:28:33;;;;;;;4.63;4.23;;;10.10;43.80;;;;;;10265939;28;20238;-73
2023/11/13 07:33:37;;;;;;;4.83;4.47;;;10.10;44.40;;;;;;10262542;28;20271;-73
2023/11/13 07:38:42;;;;;;;5.67;5.07;;;10.00;44.30;;;;;;10268031;28;20237;-73
2023/11/13 07:43:48;;;;;;;4.87;4.47;;;10.10;44.40;;;;;;10274883;28;20366;-73
2023/11/13 07:48:51;;;;;;;5.10;4.70;;;10.10;45.10;;;;;;10274255;28;20314;-74
2023/11/13 07:53:54;;;;;;;6.07;5.37;;;10.10;44.60;;;;;;10273814;28;20239;-73
2023/11/13 07:59:05;;;;;;;7.50;6.30;;;10.10;44.80;;;;;;10267278;28;20235;-73
2023/11/13 08:04:10;;;;;;;7.33;6.53;;;10.10;45.40;;;;;;10273795;28;20575;-73
2023/11/13 08:09:15;;;;;;;7.13;5.33;;;10.20;45.70;;;;;;10270203;28;20639;-73
2023/11/13 08:14:21;;;;;;;5.97;5.47;;;10.20;45.40;;;;;;10271795;28;20291;-73
2023/11/13 08:19:24;;;;;;;10.43;9.50;;;10.30;46.10;;;;;;10271753;28;20255;-73
2023/11/13 08:24:29;;;;;;;7.80;7.07;;;10.30;46.10;;;;;;10269181;28;20238;-73
2023/11/13 08:29:34;;;;;;;8.73;4.33;;;10.30;46.10;;;;;;10273142;28;21119;-73
2023/11/13 08:34:39;;;;;;;4.27;2.27;;;10.40;48.00;;;;;;10267697;28;20238;-73
2023/11/13 08:39:42;;;;;;;6.23;2.30;;;10.60;48.90;;;;;;10270915;28;20587;-73
2023/11/13 08:44:48;;;;;;;4.33;2.00;;;11.00;48.80;;;;;;10268639;28;20306;-73
2023/11/13 08:49:52;;;;;;;6.77;2.63;;;11.30;49.80;;;;;;10269947;28;20234;-73
2023/11/13 08:54:55;;;;;;;5.97;1.80;;;11.60;48.70;;;;;;10269636;28;20714;-73
2023/11/13 09:00:01;;;;;;;3.73;1.70;;;11.90;48.70;;;;;;10269539;28;20263;-73
2023/11/13 09:05:05;;;;;;;3.23;1.63;;;12.10;49.30;;;;;;10274840;28;20298;-73
2023/11/13 09:10:10;;;;;;;2.53;1.50;;;12.30;48.50;;;;;;10272831;28;20279;-73
2023/11/13 09:15:17;;;;;;;5.17;1.87;;;12.50;48.40;;;;;;10267789;28;20714;-73
2023/11/13 09:20:24;;;;;;;4.33;1.80;;;12.60;49.10;;;;;;10272461;28;21001;-73
2023/11/13 09:25:31;;;;;;;3.53;1.47;;;12.70;48.60;;;;;;10265380;28;20255;-73
2023/11/13 09:30:39;;;;;;;2.30;1.47;;;12.80;48.30;;;;;;10265611;28;20228;-73
2023/11/13 09:35:42;;;;;;;3.20;1.37;;;12.90;48.40;;;;;;10270299;28;20302;-73
2023/11/13 09:40:54;;;;;;;2.93;1.60;;;12.90;47.60;;;;;;10263684;28;20234;-73
2023/11/13 09:46:03;;;;;;;3.43;1.50;;;13.00;47.80;;;;;;10270975;28;20223;-73
2023/11/13 09:51:08;;;;;;;2.97;1.60;;;13.10;48.30;;;;;;10266177;28;20597;-73
2023/11/13 09:56:29;;;;;;;4.33;2.20;;;13.10;48.00;;;;;;10269447;28;20256;-73
2023/11/13 10:01:35;;;;;;;3.60;1.97;;;13.10;48.00;;;;;;10263738;28;20315;-72
2023/11/13 10:06:41;;;;;;;3.43;2.20;;;13.10;48.20;;;;;;10267724;28;20597;-72
2023/11/13 10:11:44;;;;;;;4.37;2.13;;;13.10;48.10;;;;;;10267305;28;20232;-72
2023/11/13 10:16:56;;;;;;;8.70;5.40;;;13.20;47.80;;;;;;10267758;28;20246;-72
2023/11/13 10:22:00;;;;;;;4.57;2.23;;;13.30;49.40;;;;;;10267698;28;20227;-72
2023/11/13 10:27:06;;;;;;;4.90;2.37;;;13.20;47.90;;;;;;10263946;28;20306;-72
2023/11/13 10:32:16;;;;;;;3.30;1.40;;;13.20;48.10;;;;;;10269405;28;20698;-72
2023/11/13 10:37:20;;;;;;;4.73;1.77;;;13.20;48.60;;;;;;10267115;28;20290;-72
2023/11/13 10:42:26;;;;;;;2.33;1.40;;;13.30;48.10;;;;;;10266641;28;20228;-72
2023/11/13 10:47:32;;;;;;;4.43;3.23;;;13.20;48.10;;;;;;10267201;28;20231;-72
2023/11/13 10:52:36;;;;;;;2.93;2.20;;;13.20;48.30;;;;;;10268909;28;20601;-72
2023/11/13 10:57:41;;;;;;;2.87;1.73;;;13.20;48.10;;;;;;10265058;28;20228;-72
2023/11/13 11:02:48;;;;;;;3.23;1.73;;;13.20;47.90;;;;;;10263386;28;20328;-72
2023/11/13 11:07:54;;;;;;;3.60;2.10;;;13.20;48.30;;;;;;10266227;28;20228;-72
2023/11/13 11:13:02;;;;;;;3.03;2.30;;;13.20;48.10;;;;;;10265207;28;20259;-72
2023/11/13 11:18:16;;;;;;;4.73;2.60;;;13.20;48.10;;;;;;10268638;28;20698;-72
2023/11/13 11:23:25;;;;;;;4.90;3.40;;;13.20;48.70;;;;;;10272843;28;20318;-73
2023/11/13 11:28:40;;;;;;;3.27;2.67;;;13.20;48.20;;;;;;10272461;28;20314;-73
2023/11/13 11:33:49;;;;;;;3.30;2.10;;;13.20;48.70;;;;;;10273164;28;20319;-72
2023/11/13 11:39:13;;;;;;;4.00;2.73;;;13.30;48.10;;;;;;10275399;28;20228;-72
2023/11/13 11:44:18;;;;;;;2.43;1.70;;;13.30;48.90;;;;;;10273303;28;20251;-72
2023/11/13 11:49:25;;;;;;;2.53;2.00;;;13.40;48.30;;;;;;10268827;28;20235;-72
2023/11/13 11:54:30;;;;;;;2.70;1.67;;;13.40;48.60;;;;;;10272617;28;20264;-73
2023/11/13 11:59:34;;;;;;;4.80;2.10;;;13.40;48.10;;;;;;10273915;28;20231;-73
2023/11/13 12:04:39;;;;;;;4.03;1.73;;;13.40;48.20;;;;;;10275543;28;20748;-72
2023/11/13 12:09:43;;;;;;;2.97;2.17;;;13.40;48.90;;;;;;10266505;28;20665;-73
2023/11/13 12:14:46;;;;;;;3.13;1.90;;;13.40;48.40;;;;;;10273556;28;20216;-73
2023/11/13 12:19:51;;;;;;;3.43;1.80;;;13.40;48.70;;;;;;10268624;28;20315;-73
2023/11/13 12:25:04;;;;;;;2.83;2.10;;;13.40;49.50;;;;;;10269305;28;21140;-73
2023/11/13 12:30:15;;;;;;;8.00;5.47;;;13.40;49.30;;;;;;10272286;28;20228;-73
2023/11/13 12:35:22;;;;;;;6.03;4.97;;;13.50;49.80;;;;;;10266358;28;20266;-73
2023/11/13 12:40:25;;;;;;;4.33;2.83;;;13.50;51.00;;;;;;10270030;28;20239;-72
2023/11/13 12:45:29;;;;;;;3.87;2.10;;;13.60;50.00;;;;;;10266664;28;20232;-73
2023/11/13 12:50:34;;;;;;;1.87;1.50;;;13.70;50.50;;;;;;10270409;28;20722;-73
2023/11/13 12:55:41;;;;;;;2.70;1.50;;;13.90;51.70;;;;;;10269105;28;20607;-73
2023/11/13 13:00:46;;;;;;;2.30;1.70;;;14.00;52.10;;;;;;10267528;28;20235;-73
2023/11/13 13:05:53;;;;;;;3.90;2.20;;;14.20;50.90;;;;;;10256581;28;20223;-73
2023/11/13 13:10:58;;;;;;;2.40;1.50;;;14.40;51.70;;;;;;10257971;28;20742;-74
2023/11/13 13:16:01;;;;;;;2.80;1.90;;;14.50;50.80;;;;;;10261694;28;20226;-74
2023/11/13 13:21:10;;;;;;;1.77;1.40;;;14.60;50.70;;;;;;10255556;28;20241;-75
2023/11/13 13:26:13;;;;;;;1.80;1.30;;;14.70;51.50;;;;;;10252123;28;20235;-74
2023/11/13 13:31:16;;;;;;;1.50;1.40;;;14.80;50.90;;;;;;10248231;28;20232;-72
2023/11/13 13:36:21;;;;;;;1.13;1.10;;;14.90;50.90;;;;;;10253254;28;20235;-75
2023/11/13 13:41:25;;;;;;;1.70;1.37;;;14.90;51.20;;;;;;10249048;28;20232;-75
2023/11/13 13:46:28;;;;;;;3.40;1.40;;;15.00;50.50;;;;;;10248916;28;20281;-75
2023/11/13 13:51:35;;;;;;;1.57;1.30;;;15.00;50.50;;;;;;10251391;28;20626;-73
2023/11/13 13:56:41;;;;;;;2.53;1.50;;;15.10;51.20;;;;;;10252538;28;20281;-75
2023/11/13 14:01:45;;;;;;;3.17;1.30;;;15.20;50.50;;;;;;10249008;28;20239;-73
2023/11/13 14:06:51;;;;;;;2.10;1.50;;;15.20;50.50;;;;;;10251989;28;20223;-73
2023/11/13 14:11:55;;;;;;;3.97;1.40;;;15.30;50.90;;;;;;10248774;28;20255;-73
2023/11/13 14:17:03;;;;;;;1.50;1.40;;;15.30;50.50;;;;;;10245975;28;20232;-72
2023/11/13 14:22:09;;;;;;;2.40;2.20;;;15.40;50.50;;;;;;10242434;28;20251;-72
2023/11/13 14:27:12;;;;;;;1.83;1.50;;;15.40;50.80;;;;;;10245056;28;20232;-72
2023/11/13 14:32:18;;;;;;;3.47;1.33;;;15.40;50.20;;;;;;10247100;28;20911;-72
2023/11/13 14:37:24;;;;;;;3.27;1.73;;;15.50;50.10;;;;;;10250315;28;20239;-71
2023/11/13 14:42:28;;;;;;;4.17;3.00;;;15.50;50.40;;;;;;10247484;28;20227;-72
2023/11/13 14:47:35;;;;;;;1.60;1.40;;;15.60;50.10;;;;;;10250491;28;21077;-71
2023/11/13 14:52:43;;;;;;;1.73;1.30;;;15.60;50.00;;;;;;10246592;28;20232;-74
2023/11/13 14:57:48;;;;;;;2.50;1.80;;;15.60;50.70;;;;;;10249170;28;20804;-71
2023/11/13 15:02:52;;;;;;;2.63;1.40;;;15.60;50.10;;;;;;10244538;28;20247;-71
2023/11/13 15:07:58;;;;;;;3.67;1.40;;;15.60;50.20;;;;;;10256475;28;20307;-74
2023/11/13 15:13:01;;;;;;;2.43;1.70;;;15.60;50.30;;;;;;10258867;28;20262;-71
2023/11/13 15:18:04;;;;;;;3.67;1.57;;;15.60;49.90;;;;;;10250349;28;20661;-71
2023/11/13 15:23:09;;;;;;;2.77;1.53;;;15.60;49.80;;;;;;10256308;28;20242;-72
2023/11/13 15:28:33;;;;;;;3.07;1.50;;;15.60;50.30;;;;;;10249055;28;20244;-72
2023/11/13 15:33:36;;;;;;;2.10;1.23;;;15.60;49.80;;;;;;10257230;28;20319;-74
2023/11/13 15:38:41;;;;;;;1.70;1.37;;;15.70;49.80;;;;;;10256679;28;20310;-74
2023/11/13 15:43:44;;;;;;;1.33;1.10;;;15.70;50.10;;;;;;10251215;28;20274;-72
2023/11/13 15:48:47;;;;;;;1.60;1.50;;;15.70;49.80;;;;;;10253601;28;20283;-73
2023/11/13 15:53:52;;;;;;;1.43;1.30;;;15.80;49.80;;;;;;10253827;28;20234;-71
2023/11/13 15:58:56;;;;;;;1.50;1.40;;;15.80;50.10;;;;;;10254201;28;20947;-72
2023/11/13 16:03:59;;;;;;;2.70;1.53;;;15.80;49.80;;;;;;10254195;28;20662;-72
2023/11/13 16:09:04;;;;;;;1.63;1.43;;;15.80;49.70;;;;;;10264053;28;20718;-71
2023/11/13 16:14:08;;;;;;;1.30;1.20;;;15.80;49.90;;;;;;10262071;28;20231;-72
2023/11/13 16:19:11;;;;;;;2.50;1.20;;;15.80;49.60;;;;;;10262217;28;20224;-73
2023/11/13 16:24:16;;;;;;;1.67;1.57;;;15.80;49.70;;;;;;10263984;28;20243;-72
2023/11/13 16:29:21;;;;;;;1.77;1.60;;;15.80;49.80;;;;;;10260688;28;20228;-73
2023/11/13 16:34:24;;;;;;;4.30;1.30;;;15.90;50.00;;;;;;10262399;28;20506;-73
2023/11/13 16:39:29;;;;;;;3.00;1.30;;;15.90;49.60;;;;;;10260961;28;20243;-72
2023/11/13 16:44:32;;;;;;;1.30;1.20;;;15.90;49.70;;;;;;10258611;28;20235;-74
2023/11/13 16:49:35;;;;;;;1.57;1.30;;;15.90;49.50;;;;;;10258787;28;20244;-73
2023/11/13 16:54:40;;;;;;;2.13;1.60;;;15.90;49.40;;;;;;10259163;28;20359;-73
2023/11/13 16:59:44;;;;;;;1.83;1.60;;;15.90;49.70;;;;;;10263030;28;20232;-76
2023/11/13 17:04:47;;;;;;;1.30;1.20;;;15.90;49.60;;;;;;10262959;28;20243;-74
2023/11/13 17:09:52;;;;;;;2.90;1.90;;;15.90;49.50;;;;;;10262277;28;20342;-73
2023/11/13 17:14:57;;;;;;;2.10;1.70;;;15.90;49.70;;;;;;10258276;28;20249;-76
2023/11/13 17:20:00;;;;;;;2.60;2.00;;;15.90;49.60;;;;;;10259440;28;20313;-73
2023/11/13 17:25:08;;;;;;;1.77;1.50;;;16.00;49.60;;;;;;10261545;28;20234;-73
2023/11/13 17:30:12;;;;;;;1.50;1.30;;;16.00;49.60;;;;;;10258461;28;20319;-75
2023/11/13 17:35:15;;;;;;;2.20;1.30;;;16.00;49.60;;;;;;10255769;28;20235;-75
2023/11/13 17:40:21;;;;;;;1.67;1.43;;;15.90;49.40;;;;;;10255744;28;20238;-75
2023/11/13 17:45:25;;;;;;;1.50;1.40;;;15.90;49.90;;;;;;10256449;28;20245;-73
2023/11/13 17:50:30;;;;;;;1.43;1.30;;;15.90;49.70;;;;;;10258946;28;20294;-73
2023/11/13 17:55:34;;;;;;;1.40;1.20;;;15.90;49.90;;;;;;10255811;28;20246;-75
2023/11/13 18:00:38;;;;;;;1.77;1.40;;;15.90;50.20;;;;;;10256151;28;20239;-73
2023/11/13 18:05:41;;;;;;;2.13;1.30;;;15.90;50.00;;;;;;10258850;28;20312;-75
2023/11/13 18:10:46;;;;;;;1.60;1.50;;;15.90;50.00;;;;;;10259182;28;20224;-75
2023/11/13 18:15:49;;;;;;;2.43;1.63;;;15.90;50.50;;;;;;10260785;28;20231;-74
2023/11/13 18:20:53;;;;;;;2.10;1.30;;;15.90;50.30;;;;;;10250538;28;20238;-75
2023/11/13 18:25:59;;;;;;;1.20;1.10;;;15.90;50.60;;;;;;10248606;28;20303;-74
2023/11/13 18:31:04;;;;;;;1.40;1.30;;;15.90;50.70;;;;;;10247158;28;20227;-74
2023/11/13 18:36:08;;;;;;;1.50;0.90;;;15.90;50.50;;;;;;10245451;28;20240;-73
2023/11/13 18:41:13;;;;;;;2.10;1.10;;;16.00;50.60;;;;;;10252308;28;20234;-72
2023/11/13 18:46:18;;;;;;;2.73;1.10;;;16.00;51.00;;;;;;10246981;28;20236;-72
2023/11/13 18:51:22;;;;;;;1.03;1.00;;;16.00;50.50;;;;;;10248071;28;20247;-74
2023/11/13 18:56:27;;;;;;;1.00;0.90;;;16.10;50.60;;;;;;10243982;28;20737;-75
2023/11/13 19:01:30;;;;;;;0.97;0.97;;;16.20;51.10;;;;;;10242380;28;20955;-74
2023/11/13 19:06:39;;;;;;;1.00;1.00;;;16.20;50.70;;;;;;10246790;28;20278;-72
2023/11/13 19:11:43;;;;;;;1.00;0.90;;;16.30;51.30;;;;;;10246256;28;20231;-73
2023/11/13 19:16:46;;;;;;;1.70;1.00;;;16.30;51.00;;;;;;10251339;28;20240;-73
2023/11/13 19:21:50;;;;;;;1.63;1.53;;;16.40;50.70;;;;;;10250535;28;20314;-74
2023/11/13 19:26:54;;;;;;;1.70;1.60;;;16.40;50.50;;;;;;10248010;28;20247;-75
2023/11/13 19:31:59;;;;;;;1.60;1.50;;;16.50;50.50;;;;;;10255118;28;20232;-74
2023/11/13 19:37:03;;;;;;;1.60;1.20;;;16.60;50.50;;;;;;10249811;28;20717;-73
2023/11/13 19:42:08;;;;;;;1.00;1.00;;;16.70;50.50;;;;;;10258767;28;20977;-72
2023/11/13 19:47:11;;;;;;;1.17;1.07;;;16.60;50.30;;;;;;10252099;28;20270;-73
2023/11/13 19:52:15;;;;;;;1.33;0.90;;;16.80;50.20;;;;;;10249191;28;20227;-73
2023/11/13 19:57:19;;;;;;;0.90;0.90;;;16.80;50.10;;;;;;10252801;28;20291;-72
2023/11/13 20:02:23;;;;;;;1.60;1.00;;;16.90;50.00;;;;;;10252782;28;20231;-72
2023/11/13 20:07:26;;;;;;;1.70;1.10;;;17.00;50.00;;;;;;10251052;28;20306;-75
2023/11/13 20:12:31;;;;;;;1.77;1.43;;;17.10;49.80;;;;;;10251390;28;20561;-73
2023/11/13 20:17:35;;;;;;;2.33;1.20;;;17.10;49.60;;;;;;10252428;28;20261;-73
2023/11/13 20:22:38;;;;;;;1.00;1.00;;;17.20;49.60;;;;;;10250744;28;20247;-74
2023/11/13 20:27:43;;;;;;;0.93;0.93;;;17.20;49.40;;;;;;10261314;28;20966;-74
2023/11/13 20:32:46;;;;;;;1.00;1.00;;;17.30;49.20;;;;;;10259134;28;20231;-74
2023/11/13 20:37:50;;;;;;;0.90;0.80;;;17.40;49.20;;;;;;10257314;28;20231;-73
2023/11/13 20:42:54;;;;;;;1.37;0.73;;;17.40;49.00;;;;;;10257000;28;21053;-73
2023/11/13 20:47:57;;;;;;;0.80;0.80;;;17.40;48.80;;;;;;10257451;28;20281;-73
2023/11/13 20:53:01;;;;;;;0.70;0.70;;;17.50;48.80;;;;;;10263131;28;20224;-75
2023/11/13 20:58:07;;;;;;;0.70;0.70;;;17.50;48.90;;;;;;10260075;28;20275;-73
2023/11/13 21:03:11;;;;;;;0.70;0.70;;;17.50;48.70;;;;;;10261872;28;20250;-76
2023/11/13 21:08:14;;;;;;;0.83;0.80;;;17.50;48.80;;;;;;10260418;28;20757;-74
2023/11/13 21:13:19;;;;;;;0.83;0.60;;;17.50;48.80;;;;;;10260989;28;20744;-75
2023/11/13 21:18:23;;;;;;;0.70;0.70;;;17.50;48.80;;;;;;10262879;28;20601;-74
2023/11/13 21:23:26;;;;;;;0.73;0.73;;;17.50;48.70;;;;;;10268397;28;20238;-74
2023/11/13 21:28:33;;;;;;;0.77;0.77;;;17.50;48.70;;;;;;10267653;28;20274;-74
2023/11/13 21:33:39;;;;;;;0.63;0.63;;;17.50;48.70;;;;;;10268314;28;20722;-74
2023/11/13 21:38:44;;;;;;;1.90;0.70;;;17.60;48.80;;;;;;10276982;28;20315;-76
2023/11/13 21:43:49;;;;;;;1.80;0.63;;;17.60;48.80;;;;;;10280491;28;20507;-74
2023/11/13 21:48:52;;;;;;;0.70;0.70;;;17.60;48.50;;;;;;10272507;28;20698;-74
2023/11/13 21:53:59;;;;;;;0.63;0.63;;;17.60;48.50;;;;;;10271424;28;20307;-74
2023/11/13 21:59:05;;;;;;;0.60;0.60;;;17.60;48.40;;;;;;10273868;28;20227;-77
2023/11/13 22:04:09;;;;;;;0.70;0.70;;;17.70;48.40;;;;;;10270135;28;20238;-75
2023/11/13 22:09:12;;;;;;;0.80;0.80;;;17.70;48.40;;;;;;10265845;28;20799;-74
2023/11/13 22:14:17;;;;;;;0.70;0.60;;;17.80;48.40;;;;;;10272120;28;20260;-74
2023/11/13 22:19:20;;;;;;;0.60;0.60;;;17.80;48.40;;;;;;10270212;28;20956;-74
2023/11/13 22:24:23;;;;;;;0.83;0.83;;;17.80;48.40;;;;;;10273289;28;20278;-74
2023/11/13 22:29:28;;;;;;;0.60;0.60;;;17.80;48.50;;;;;;10267521;28;20235;-74
2023/11/13 22:34:31;;;;;;;0.80;0.80;;;17.80;48.70;;;;;;10269404;28;20231;-74
2023/11/13 22:39:35;;;;;;;0.50;0.50;;;17.90;48.80;;;;;;10264939;28;20240;-74
2023/11/13 22:44:40;;;;;;;0.60;0.60;;;17.80;48.70;;;;;;10269876;28;20238;-74
2023/11/13 22:49:43;;;;;;;0.57;0.57;;;17.70;49.10;;;;;;10269289;28;20246;-74
2023/11/13 22:54:47;;;;;;;0.50;0.50;;;17.70;49.00;;;;;;10279763;28;20224;-73
2023/11/13 22:59:52;;;;;;;0.60;0.60;;;17.60;49.10;;;;;;10287129;28;20845;-74
2023/11/13 23:04:56;;;;;;;0.60;0.60;;;17.60;49.40;;;;;;10287199;28;20236;-74
2023/11/13 23:09:59;;;;;;;0.70;0.70;;;17.60;49.20;;;;;;10287046;28;20246;-74
2023/11/13 23:15:08;;;;;;;0.70;0.70;;;17.50;49.20;;;;;;10292915;28;20223;-74
2023/11/13 23:20:13;;;;;;;0.63;0.60;;;17.50;49.50;;;;;;10294412;28;20227;-74
2023/11/13 23:25:16;;;;;;;0.50;0.50;;;17.50;49.30;;;;;;10293948;28;20235;-75
2023/11/13 23:30:21;;;;;;;0.50;0.50;;;17.50;49.40;;;;;;10290860;28;20247;-75
2023/11/13 23:35:26;;;;;;;0.50;0.50;;;17.50;49.60;;;;;;10291137;28;20234;-76
2023/11/13 23:40:30;;;;;;;1.40;0.60;;;17.50;49.30;;;;;;10290533;28;20318;-74
2023/11/13 23:45:36;;;;;;;1.03;0.70;;;17.50;49.30;;;;;;10290245;28;20521;-75
2023/11/13 23:50:40;;;;;;;1.60;0.70;;;17.50;48.60;;;;;;10289911;28;20318;-76
2023/11/13 23:55:43;;;;;;;1.63;0.80;;;17.40;47.20;;;;;;10287903;28;20247;-75
